Logo AVAMET
Benvolgut visitant, si us plau, ingressa Recuperar contrasenya

les Useres

Dades diàries. Acumulats / Últims 30 dies disponibles

Data Temperatura (°C) Humitat rel. (%) Pressió rel. (hPa) Vent (km/h) Precipitació
Mínima Mitjana Màxima Amplitud
tèrmica
Mínima Mitjana Màxima Mínima Mitjana Màxima Predom. Mitjana Ràfega
màxima
Total
(mm)
Índex-n
Mínima Mitjana Màxima Mínima Mitjana Màxima n
0 a 1
P0 max
mm 5'
Dades mensuals acumulades fins l'últim dia disponible
01/2020 1,8 5,6 8,4 8,8 6,2 12,9 18,0 16,2 31 71 95 1.014 1.025 1.032   6,0 74,0 145,2
Dades anuals acumulades fins l'últim dia disponible
2020 1,8 5,6 8,4 8,8 6,2 12,9 18,0 16,2 31 71 95 1.014 1.025 1.032   6,0 74,0 145,2
Últims 30 dies disponibles
24-01-2020 6,3     9,3     14,2 7,9 58 83 93 1.019 1.021 1.022 SE 4,2 27,4 0,0
23-01-2020 5,8     8,6     11,5 5,7 68 79 90 1.017 1.019 1.022 SE 4,3 29,0 0,0
22-01-2020 7,8     9,6     12,7 4,9 68 78 93 1.016 1.018 1.020 NNW 8,4 32,2 0,4
21-01-2020 3,2     6,4     10,9 7,7 86 93 95 1.014 1.018 1.023 NNW 19,2 74,0 113,4 0,62 4,90
20-01-2020 1,8     3,3     6,2 4,4 56 81 91 1.020 1.022 1.024 NNW 26,2 67,6 13,8 0,29 0,70
19-01-2020 4,1     6,9     10,1 6,0 54 74 91 1.014 1.017 1.021 NNW 14,8 49,9 17,2 0,32 1,50
18-01-2020 7,1     10,4     14,9 7,8 51 60 75 1.018 1.025 1.030 SE 4,8 35,4 0,0
17-01-2020 8,4     12,5     18,0 9,6 37 52 77 1.024 1.026 1.030 NW 4,7 32,2 0,0
16-01-2020 7,8     11,4     16,3 8,5 53 65 78 1.024 1.026 1.028 SE 4,2 29,0 0,0
15-01-2020 3,9     8,9     14,0 10,1 48 63 79 1.021 1.023 1.026 SE 1,9 14,5 0,0
14-01-2020 4,6     8,4     13,9 9,3 39 57 79 1.019 1.020 1.022 SE 2,7 17,7 0,0
13-01-2020 4,0     8,3     13,4 9,4 31 59 84 1.020 1.023 1.028 SE 1,8 14,5 0,0
12-01-2020 4,6     8,1     13,4 8,8 33 63 83 1.027 1.028 1.029 SE 2,9 19,3 0,0
11-01-2020 5,9     9,3     14,1 8,2 39 57 71 1.027 1.028 1.030 NNW 6,0 35,4 0,0
10-01-2020 5,9     9,7     12,2 6,3 47 63 88 1.022 1.024 1.028 NNW 11,3 54,7 0,0
09-01-2020 5,6     7,0     10,2 4,6 71 78 82 1.027 1.028 1.029 SSO 0,0 4,8 0,0
08-01-2020 7,2     10,0     13,7 6,5 55 72 88 1.026 1.029 1.031 SE 1,6 17,7 0,0
07-01-2020 4,9     9,0     14,8 9,9 54 79 93 1.027 1.029 1.030 SE 3,1 19,3 0,2
06-01-2020 5,6     9,1     13,8 8,2 60 74 89 1.026 1.028 1.029 SE 2,4 22,5 0,0
05-01-2020 6,8     10,9     16,8 10,0 38 56 79 1.025 1.027 1.030 SE 3,5 19,3 0,0
04-01-2020 6,7     10,6     14,9 8,2 51 64 90 1.030 1.031 1.032 SE 3,9 27,4 0,2
03-01-2020 5,3     6,1     7,3 2,0 87 90 93 1.028 1.029 1.030 ONO 1,3 8,0 0,0
02-01-2020 6,4     8,3     11,2 4,8 72 83 89 1.029 1.030 1.032 SE 4,0 24,1 0,0
01-01-2020 5,2     8,5     11,9 6,7 73 86 93 1.029 1.030 1.032 SE 5,8 25,7 0,0
31-12-2019 6,3     8,5     12,2 5,9 69 85 90 1.030 1.031 1.033 SSO 4,3 25,7 0,0
30-12-2019 7,2     9,0     13,1 5,9 61 79 86 1.030 1.031 1.033 SE 4,5 24,1 0,0
29-12-2019 4,7     8,7     13,1 8,4 63 81 91 1.029 1.031 1.032 SE 3,2 20,9 0,0
28-12-2019 4,2     9,2     13,8 9,6 46 69 88 1.027 1.029 1.031 SE 2,6 20,9 0,0
27-12-2019 7,5     11,4     16,4 8,9 48 67 89 1.026 1.027 1.028 SE 2,1 14,5 0,0
26-12-2019 11,2     17,1     21,9 10,7 27 47 74 1.020 1.023 1.028 SE 3,4 20,9 0,0
Últims 13 mesos disponibles
12/2019 4,2 9,4 14,9 12,5 10,2 16,1 22,9 18,7 40 65 86 998 1.017 1.031 SE 7,1 96,6 96,2
11/2019 5,4 10,0 17,0 13,4 12,3 17,3 25,4 20,0 43 53 73 994 1.008 1.016 SE 9,5 78,9 3,2
10/2019 9,7 14,8 18,2 18,7 14,3 23,3 30,4 20,7 43 65 82 1.005 1.015 1.020 SE 6,0 56,3 24,8
09/2019 12,8 17,8 20,5 21,7 19,6 26,3 30,6 17,8 51 67 81 1.008 1.016 1.025 SE 7,5 66,0 33,8
08/2019 17,3 20,3 25,9 24,7 23,8 29,9 36,4 19,1 48 65 80 1.009 1.014 1.019 SE 6,4 66,0 47,0
07/2019 19,3 20,9 23,3 25,6 25,5 31,0 35,1 15,8 37 55 71 1.004 1.012 1.019 SE 6,9 53,1 12,8
06/2019 10,3 16,8 23,7 21,7 18,7 26,9 38,4 28,1 26 54 72 1.006 1.013 1.020 SE 7,4 61,2 0,2
05/2019 8,5 12,2 17,1 16,8 15,9 21,9 28,2 19,7 41 61 85 1.003 1.013 1.022 SE 7,5 77,2 31,4
04/2019 5,8 9,7 12,3 13,3 12,8 17,8 25,7 19,9 39 62 88 997 1.011 1.023 SE 9,5 62,8 95,8
03/2019 5,1 9,2 14,7 13,7 10,2 18,8 25,7 20,6 35 50 82 1.008 1.021 1.028 SE 7,4 62,8 19,6
02/2019 3,4 7,2 13,7 11,4 9,1 16,6 24,6 21,2 33 57 79 990 1.023 1.032 SE 7,2 122,3 0,0
01/2019 1,8 6,6 10,7 10,2 9,7 14,4 19,8 18,0 22 52 77 998 1.017 1.029 SE 7,8 99,8 0,2
12/2018 5,2 9,1 12,7 12,6 11,7 16,7 22,4 17,2 31 64 85 1.006 1.023 1.029 SE 4,1 80,5 9,2
Tots els anys disponibles
2019 1,8 13,0 25,9 17,0 9,1 21,7 38,4 36,6 22 59 88 990 1.015 1.032 SE 7,5 122,3 365,0
Temperatura (°C)
Humitat relativa (%)
Velocitat del vent i ràfega màxima (km/h)
Direcció del vent (°)
Pressió (hPa)
Precipitació (mm)
Nota sobre les dades: s'avisa a l'usuari de la provisionalitat i no oficialitat d'aquestes dades
Logo AVAMET blanc
Web allotjada a Sollutia
Llicència de Creative CommonsLa web d'AVAMET i els seus continguts estan subjectes a una llicència de
Reconeixement - No Comercial - Compartir igual
Últimes estacions: Xixona - Els Ameradors (Soci), Agres - El Tossal (Soci), Xàbia - Bevenguts (MeteoXàbia), Llíria (Aj. Soci/Inforatge), Orihuela - Lo Capitán, Cox & Guardamar del Segura - horta (Meteorihuela), l'Alcúdia - Carriona & el Real de Gandia (Inforatge), Benicàssim - les Vil·les (Soci),  l'Alfàs del Pi - l'Albir (Soci), - - -